Time;durP1;ratioP1;P1;durP2;ratioP2;P2;SDS_P1;SDS_P2;PMS_P1;PMS_P2;Temp;Humidity;BMP_temperature;BMP_pressure;BME280_temperature;BME280_humidity;BME280_pressure;Samples;Min_cycle;Max_cycle;Signal;HPM_P1;HPM_P2
2021/08/03 00:00:16;;;;;;;5.45;3.58;;;;;;;12.25;100.00;101462.00;3592186;39;20040;-61
2021/08/03 00:02:46;;;;;;;9.00;3.83;;;;;;;12.11;100.00;101456.94;3594823;39;20045;-60
2021/08/03 00:05:18;;;;;;;5.28;3.20;;;;;;;11.97;100.00;101460.81;3592990;39;20044;-61
2021/08/03 00:07:47;;;;;;;6.80;3.47;;;;;;;11.96;100.00;101453.72;3593000;39;20142;-61
2021/08/03 00:10:17;;;;;;;5.38;3.38;;;;;;;12.02;100.00;101450.50;3593037;39;20291;-60
2021/08/03 00:12:48;;;;;;;7.20;3.60;;;;;;;11.97;100.00;101444.63;3591725;39;20131;-60
2021/08/03 00:15:19;;;;;;;3.83;2.90;;;;;;;12.07;100.00;101445.53;3591792;39;20048;-60
2021/08/03 00:17:46;;;;;;;6.93;3.55;;;;;;;12.02;100.00;101455.88;3593846;39;20055;-61
2021/08/03 00:20:13;;;;;;;7.70;3.08;;;;;;;11.99;100.00;101448.06;3592847;39;20073;-60
2021/08/03 00:22:39;;;;;;;4.32;2.95;;;;;;;11.90;100.00;101453.19;3593550;39;20044;-60
2021/08/03 00:25:07;;;;;;;8.48;3.08;;;;;;;11.98;100.00;101457.13;3595450;39;20032;-61
2021/08/03 00:27:35;;;;;;;5.03;2.80;;;;;;;11.99;100.00;101454.28;3593594;39;20032;-60
2021/08/03 00:30:02;;;;;;;5.90;3.15;;;;;;;11.85;100.00;101455.44;3591913;39;20044;-60
2021/08/03 00:32:30;;;;;;;8.52;3.75;;;;;;;11.81;100.00;101454.00;3592542;39;20054;-61
2021/08/03 00:34:57;;;;;;;7.88;3.78;;;;;;;11.73;100.00;101457.34;3594621;39;20025;-60
2021/08/03 00:37:23;;;;;;;6.63;3.55;;;;;;;11.71;100.00;101453.06;3593055;39;20471;-61
2021/08/03 00:39:50;;;;;;;4.97;3.30;;;;;;;11.67;100.00;101449.75;3593623;39;20042;-60
2021/08/03 00:45:01;;;;;;;8.05;3.75;;;;;;;11.72;100.00;101452.06;3624142;22;20056;-60
2021/08/03 00:47:28;;;;;;;5.32;2.97;;;;;;;11.78;100.00;101443.47;3593559;39;20033;-60
2021/08/03 00:49:55;;;;;;;4.25;3.17;;;;;;;11.72;100.00;101450.22;3594650;39;20434;-60
2021/08/03 00:52:22;;;;;;;5.63;3.25;;;;;;;11.66;100.00;101441.78;3593441;39;20078;-61
2021/08/03 00:54:48;;;;;;;10.15;4.07;;;;;;;11.65;100.00;101440.09;3594044;39;20060;-60
2021/08/03 00:57:15;;;;;;;4.03;3.50;;;;;;;11.75;100.00;101432.94;3594857;39;20114;-60
2021/08/03 00:59:42;;;;;;;5.97;3.60;;;;;;;11.70;100.00;101429.75;3593238;39;20047;-61
2021/08/03 01:02:08;;;;;;;5.20;3.42;;;;;;;11.72;100.00;101438.59;3592697;39;20385;-61
2021/08/03 01:04:36;;;;;;;4.75;3.47;;;;;;;11.69;100.00;101441.53;3592855;39;20367;-60
2021/08/03 01:07:14;;;;;;;5.43;3.67;;;;;;;11.73;100.00;101429.50;3593030;39;20071;-60
2021/08/03 01:09:50;;;;;;;5.43;3.10;;;;;;;11.79;100.00;101428.97;3593016;39;20036;-61
2021/08/03 01:14:54;;;;;;;6.80;3.65;;;;;;;11.83;100.00;101427.72;3643521;22;20062;-60
2021/08/03 01:17:31;;;;;;;6.85;3.28;;;;;;;11.70;100.00;101432.47;3614141;39;20092;-61
2021/08/03 01:20:05;;;;;;;5.53;3.10;;;;;;;11.69;100.00;101430.72;3615304;39;20027;-60
2021/08/03 01:23:00;;;;;;;9.68;3.20;;;;;;;11.61;100.00;101427.84;3615795;39;20042;-61
2021/08/03 01:28:23;;;;;;;10.63;3.60;;;;;;;11.72;100.00;101436.75;3628732;22;20149;-61
2021/08/03 01:30:53;;;;;;;7.40;3.58;;;;;;;11.83;100.00;101433.13;3583127;40;20052;-60
2021/08/03 01:33:23;;;;;;;7.85;3.20;;;;;;;11.83;100.00;101427.72;3585360;40;20280;-61
2021/08/03 01:35:51;;;;;;;6.57;3.08;;;;;;;12.03;100.00;101433.31;3661023;22;20062;-60
2021/08/03 01:38:21;;;;;;;5.28;2.97;;;;;;;12.02;100.00;101435.16;3610240;39;20053;-60
2021/08/03 01:40:51;;;;;;;5.70;3.40;;;;;;;11.97;100.00;101432.00;3616071;39;20077;-61
2021/08/03 01:43:18;;;;;;;5.80;3.17;;;;;;;11.87;100.00;101429.19;3614836;39;20043;-61
2021/08/03 01:45:49;;;;;;;7.07;3.50;;;;;;;11.78;100.00;101429.09;3615770;39;20043;-60
2021/08/03 01:48:16;;;;;;;5.65;3.00;;;;;;;11.85;100.00;101439.25;3614618;39;20027;-61
2021/08/03 01:50:45;;;;;;;7.85;3.40;;;;;;;11.98;100.00;101432.84;3616887;39;20043;-61
2021/08/03 01:53:12;;;;;;;5.65;3.13;;;;;;;11.87;100.00;101431.88;3615344;39;20061;-61
2021/08/03 01:55:39;;;;;;;5.82;3.47;;;;;;;11.81;100.00;101431.56;3616184;39;20308;-60
2021/08/03 01:58:06;;;;;;;4.05;3.15;;;;;;;11.77;100.00;101428.25;3613990;39;20278;-60
2021/08/03 02:00:33;;;;;;;5.47;2.85;;;;;;;11.82;100.00;101434.13;3614917;39;20027;-60
2021/08/03 02:03:02;;;;;;;7.60;2.97;;;;;;;11.90;100.00;101428.09;3614130;39;20032;-60
2021/08/03 02:05:29;;;;;;;5.25;3.00;;;;;;;11.95;100.00;101433.13;3615429;39;20033;-60
2021/08/03 02:07:56;;;;;;;8.13;3.35;;;;;;;11.95;100.00;101430.41;3611522;39;20078;-60
2021/08/03 02:10:22;;;;;;;4.22;2.88;;;;;;;12.03;100.00;101427.94;3613550;39;20398;-61
2021/08/03 02:12:50;;;;;;;6.03;3.25;;;;;;;12.02;100.00;101426.22;3616603;39;20037;-61
2021/08/03 02:15:17;;;;;;;4.10;2.92;;;;;;;12.04;100.00;101422.41;3615914;39;20041;-61
2021/08/03 02:17:43;;;;;;;8.68;3.13;;;;;;;12.04;100.00;101424.22;3616384;39;20043;-61
2021/08/03 02:20:12;;;;;;;7.03;3.10;;;;;;;12.06;100.00;101433.91;3615529;39;20385;-61
2021/08/03 02:22:38;;;;;;;8.00;3.10;;;;;;;12.13;100.00;101428.84;3612886;39;20035;-61
2021/08/03 02:25:06;;;;;;;7.65;3.20;;;;;;;12.13;100.00;101433.38;3611979;39;20442;-61
2021/08/03 02:27:33;;;;;;;6.00;3.33;;;;;;;12.14;100.00;101427.84;3615642;39;20042;-61
2021/08/03 02:29:59;;;;;;;4.68;2.95;;;;;;;12.17;100.00;101432.97;3615722;39;20061;-60
2021/08/03 02:32:30;;;;;;;7.00;3.55;;;;;;;12.17;100.00;101441.06;3615942;39;20098;-61
2021/08/03 02:35:02;;;;;;;5.15;3.13;;;;;;;12.19;100.00;101432.81;3616012;39;20393;-60
2021/08/03 02:37:33;;;;;;;5.10;2.67;;;;;;;12.22;100.00;101433.44;3615514;39;20047;-61
2021/08/03 02:40:01;;;;;;;4.95;2.90;;;;;;;12.21;100.00;101436.28;3614907;39;20083;-60
2021/08/03 02:42:30;;;;;;;5.95;2.92;;;;;;;12.26;100.00;101434.88;3616374;39;20059;-60
2021/08/03 02:45:01;;;;;;;3.78;2.83;;;;;;;12.40;100.00;101430.13;3614643;39;20039;-60
2021/08/03 02:47:35;;;;;;;5.40;3.10;;;;;;;12.41;100.00;101427.28;3614764;39;20031;-60
2021/08/03 02:50:07;;;;;;;4.78;2.88;;;;;;;12.42;100.00;101430.84;3615570;39;20041;-60
2021/08/03 02:52:38;;;;;;;6.80;3.70;;;;;;;12.38;100.00;101432.97;3616463;39;20043;-60
2021/08/03 02:55:10;;;;;;;4.25;2.95;;;;;;;12.29;100.00;101432.91;3615029;39;20038;-60
2021/08/03 02:57:38;;;;;;;4.75;3.25;;;;;;;12.21;100.00;101433.56;3614815;39;20031;-60
2021/08/03 03:00:07;;;;;;;5.50;3.80;;;;;;;12.14;100.00;101430.53;3613903;39;20039;-62
2021/08/03 03:02:37;;;;;;;6.17;3.70;;;;;;;12.15;100.00;101431.41;3615029;39;20042;-60
2021/08/03 03:05:11;;;;;;;3.70;3.30;;;;;;;12.19;100.00;101422.91;3615814;39;20024;-60
2021/08/03 03:07:42;;;;;;;10.68;3.58;;;;;;;12.22;100.00;101424.47;3615891;39;20035;-60
2021/08/03 03:10:15;;;;;;;8.05;4.15;;;;;;;12.23;100.00;101418.09;3616300;39;20639;-60
2021/08/03 03:12:44;;;;;;;6.80;3.47;;;;;;;12.19;100.00;101427.44;3614039;39;20035;-60
2021/08/03 03:15:12;;;;;;;;;;;;;;;12.17;100.00;101422.16;3616339;39;20181;-60
2021/08/03 03:17:38;;;;;;;6.53;3.78;;;;;;;12.12;100.00;101424.44;3614099;39;19945;-60
2021/08/03 03:20:07;;;;;;;4.50;3.40;;;;;;;12.13;100.00;101423.44;3614820;39;20032;-60
2021/08/03 03:22:39;;;;;;;11.27;3.70;;;;;;;12.03;100.00;101427.94;3615246;39;20135;-60
2021/08/03 03:25:08;;;;;;;5.13;3.58;;;;;;;12.01;100.00;101430.72;3615314;39;20031;-60
2021/08/03 03:27:37;;;;;;;5.50;3.72;;;;;;;11.92;100.00;101426.09;3614406;39;20036;-60
2021/08/03 03:30:04;;;;;;;4.70;3.37;;;;;;;11.90;100.00;101434.31;3616409;39;20051;-60
2021/08/03 03:32:32;;;;;;;5.45;3.53;;;;;;;11.81;100.00;101424.31;3616154;39;20033;-60
2021/08/03 03:35:00;;;;;;;6.87;3.87;;;;;;;11.84;100.00;101426.75;3615652;39;20046;-61
2021/08/03 03:37:29;;;;;;;5.65;3.85;;;;;;;11.78;100.00;101424.59;3612881;39;20509;-61
2021/08/03 03:39:57;;;;;;;7.07;3.42;;;;;;;11.73;100.00;101426.81;3615429;39;20047;-61
2021/08/03 03:42:29;;;;;;;6.20;3.85;;;;;;;11.73;100.00;101432.19;3617127;39;20053;-61
2021/08/03 03:44:56;;;;;;;6.22;4.10;;;;;;;11.71;100.00;101426.09;3617596;39;20041;-61
2021/08/03 03:47:27;;;;;;;7.78;3.50;;;;;;;11.68;100.00;101421.81;3616320;39;20280;-61
2021/08/03 03:49:59;;;;;;;5.68;4.10;;;;;;;11.68;100.00;101411.00;3616563;39;20055;-61
2021/08/03 03:55:21;;;;;;;6.53;4.05;;;;;;;11.62;100.00;101418.78;3624139;22;20421;-61
2021/08/03 03:57:50;;;;;;;8.82;3.60;;;;;;;11.56;100.00;101420.16;3596044;39;20414;-61
2021/08/03 04:00:19;;;;;;;;;;;;;;;11.53;100.00;101421.25;3595728;39;20034;-61
2021/08/03 04:02:48;;;;;;;6.10;3.38;;;;;;;11.47;100.00;101416.38;3596616;39;19940;-60
2021/08/03 04:05:16;;;;;;;5.35;3.28;;;;;;;11.44;100.00;101419.34;3596731;39;20076;-61
2021/08/03 04:07:49;;;;;;;6.07;3.60;;;;;;;11.46;100.00;101420.06;3596577;39;20734;-60
2021/08/03 04:10:18;;;;;;;6.00;3.33;;;;;;;11.36;100.00;101419.09;3595929;39;20354;-61
2021/08/03 04:12:45;;;;;;;4.30;3.30;;;;;;;11.46;100.00;101425.44;3597215;39;20028;-61
2021/08/03 04:15:14;;;;;;;6.63;3.22;;;;;;;11.44;100.00;101416.66;3593316;39;20049;-61
2021/08/03 04:17:40;;;;;;;3.58;3.08;;;;;;;11.56;100.00;101415.59;3593751;39;20047;-60
2021/08/03 04:20:08;;;;;;;6.75;2.90;;;;;;;11.62;100.00;101413.41;3592396;39;20044;-60
2021/08/03 04:22:34;;;;;;;8.13;4.63;;;;;;;11.51;100.00;101412.44;3594188;39;20033;-60
2021/08/03 04:25:00;;;;;;;6.78;3.88;;;;;;;11.60;100.00;101418.03;3595920;39;20030;-60
2021/08/03 04:27:27;;;;;;;5.72;3.00;;;;;;;11.62;100.00;101416.94;3595943;39;20387;-60
2021/08/03 04:29:53;;;;;;;5.28;3.30;;;;;;;11.61;100.00;101415.22;3597181;39;20040;-60
2021/08/03 04:32:21;;;;;;;6.65;3.00;;;;;;;11.67;100.00;101414.69;3595415;39;20036;-61
2021/08/03 04:34:48;;;;;;;4.90;2.70;;;;;;;11.73;100.00;101416.00;3596592;39;20047;-61
2021/08/03 04:37:14;;;;;;;4.85;2.80;;;;;;;11.75;100.00;101416.75;3596015;39;20383;-61
2021/08/03 04:39:40;;;;;;;4.03;2.78;;;;;;;11.71;100.00;101410.75;3595235;39;20029;-60
2021/08/03 04:42:07;;;;;;;3.88;2.58;;;;;;;11.73;100.00;101407.91;3596316;39;20052;-61
2021/08/03 04:44:33;;;;;;;7.28;3.35;;;;;;;11.78;100.00;101408.41;3591966;39;20047;-61
2021/08/03 04:47:00;;;;;;;8.50;3.05;;;;;;;11.83;100.00;101406.16;3595116;39;20039;-61
2021/08/03 04:49:28;;;;;;;6.38;2.90;;;;;;;11.85;100.00;101401.50;3592847;40;20410;-61
2021/08/03 04:51:54;;;;;;;3.75;2.65;;;;;;;11.88;100.00;101405.75;3595277;40;20053;-60
2021/08/03 04:54:20;;;;;;;5.13;2.50;;;;;;;11.96;100.00;101399.75;3596921;39;20394;-61
2021/08/03 04:56:47;;;;;;;3.60;2.47;;;;;;;12.02;100.00;101404.63;3593203;40;20039;-61
2021/08/03 04:59:13;;;;;;;4.57;2.42;;;;;;;12.07;100.00;101399.66;3596643;39;20044;-61
2021/08/03 05:01:40;;;;;;;4.70;2.65;;;;;;;12.09;100.00;101401.25;3595266;39;20116;-61
2021/08/03 05:04:06;;;;;;;3.95;2.22;;;;;;;12.12;100.00;101397.44;3596845;39;20055;-61
2021/08/03 05:06:34;;;;;;;5.20;2.70;;;;;;;12.22;100.00;101401.06;3596933;39;20039;-61
2021/08/03 05:09:00;;;;;;;5.97;2.67;;;;;;;12.22;100.00;101403.75;3596530;39;20441;-61
2021/08/03 05:11:27;;;;;;;6.18;2.55;;;;;;;12.27;100.00;101396.09;3595978;39;20043;-61
2021/08/03 05:13:53;;;;;;;6.35;2.20;;;;;;;12.32;100.00;101400.25;3596467;39;20044;-61
2021/08/03 05:16:20;;;;;;;5.13;2.33;;;;;;;12.37;100.00;101404.25;3595865;39;20035;-61
2021/08/03 05:18:46;;;;;;;3.88;2.42;;;;;;;12.40;100.00;101398.59;3593779;39;20052;-61
2021/08/03 05:21:13;;;;;;;4.45;2.92;;;;;;;12.54;100.00;101402.75;3595498;39;20043;-61
2021/08/03 05:23:41;;;;;;;5.72;2.75;;;;;;;12.64;100.00;101404.66;3595206;39;20040;-61
2021/08/03 05:26:08;;;;;;;4.83;2.33;;;;;;;12.86;100.00;101407.13;3594353;39;20491;-61
2021/08/03 05:28:34;;;;;;;2.75;1.88;;;;;;;13.06;100.00;101409.88;3596384;39;20278;-61
2021/08/03 05:31:00;;;;;;;5.78;2.60;;;;;;;13.19;100.00;101406.94;3595137;39;20698;-61
2021/08/03 05:33:27;;;;;;;5.30;2.42;;;;;;;13.34;100.00;101413.69;3596948;39;20365;-61
2021/08/03 05:35:53;;;;;;;7.70;2.60;;;;;;;13.20;100.00;101401.38;3596009;39;20372;-61
2021/08/03 05:38:20;;;;;;;4.32;2.13;;;;;;;13.48;100.00;101405.13;3596686;39;20427;-61
2021/08/03 05:40:48;;;;;;;5.78;2.40;;;;;;;13.59;100.00;101406.88;3595796;39;20050;-61
2021/08/03 05:43:14;;;;;;;5.25;1.98;;;;;;;13.49;100.00;101406.00;3595902;39;20052;-61
2021/08/03 05:45:42;;;;;;;5.07;2.17;;;;;;;13.56;100.00;101407.16;3594754;39;20040;-61
2021/08/03 05:48:08;;;;;;;4.18;1.88;;;;;;;13.63;100.00;101408.28;3592123;39;20058;-61
2021/08/03 05:50:34;;;;;;;5.80;2.13;;;;;;;13.82;100.00;101409.25;3596460;39;20044;-61
2021/08/03 05:53:01;;;;;;;5.18;1.88;;;;;;;13.71;100.00;101404.03;3593809;39;20042;-61
2021/08/03 05:55:27;;;;;;;3.30;2.17;;;;;;;13.65;100.00;101402.75;3595062;39;20070;-61
2021/08/03 05:57:55;;;;;;;5.78;2.00;;;;;;;13.81;100.00;101394.03;3594464;39;20062;-61
2021/08/03 06:00:21;;;;;;;3.40;1.90;;;;;;;13.93;100.00;101386.63;3595064;39;20387;-61
2021/08/03 06:02:48;;;;;;;2.97;1.55;;;;;;;14.16;100.00;101389.81;3591549;39;20044;-61
2021/08/03 06:05:14;;;;;;;3.17;1.70;;;;;;;14.26;100.00;101390.66;3593449;39;20032;-61
2021/08/03 06:07:44;;;;;;;2.75;1.60;;;;;;;14.43;100.00;101386.31;3594132;39;20048;-61
2021/08/03 06:10:13;;;;;;;3.38;1.65;;;;;;;14.42;100.00;101379.19;3595620;39;20054;-61
2021/08/03 06:12:45;;;;;;;5.30;1.67;;;;;;;14.56;100.00;101377.88;3593211;39;20391;-61
2021/08/03 06:15:13;;;;;;;3.20;1.50;;;;;;;14.69;100.00;101373.00;3595638;39;20607;-61
2021/08/03 06:17:43;;;;;;;3.90;1.63;;;;;;;14.63;100.00;101370.84;3595741;39;20028;-61
2021/08/03 06:20:12;;;;;;;3.97;1.50;;;;;;;14.58;100.00;101372.31;3594142;39;20034;-61
2021/08/03 06:22:39;;;;;;;3.63;1.77;;;;;;;14.63;100.00;101375.44;3594169;39;20390;-61
2021/08/03 06:25:08;;;;;;;5.40;1.60;;;;;;;14.59;100.00;101376.69;3595061;39;21363;-61
2021/08/03 06:27:35;;;;;;;2.70;1.35;;;;;;;14.57;100.00;101374.13;3594038;39;20035;-61
2021/08/03 06:30:03;;;;;;;2.90;1.52;;;;;;;14.54;100.00;101375.28;3592017;39;20076;-61
2021/08/03 06:32:31;;;;;;;3.38;1.73;;;;;;;14.45;100.00;101380.75;3591543;39;20050;-61
2021/08/03 06:34:58;;;;;;;5.68;1.60;;;;;;;14.43;100.00;101380.91;3591967;39;20382;-61
2021/08/03 06:37:25;;;;;;;4.70;1.70;;;;;;;14.40;100.00;101380.34;3588528;39;20125;-61
2021/08/03 06:39:52;;;;;;;5.35;1.70;;;;;;;14.28;100.00;101391.38;3590314;39;20032;-61
2021/08/03 06:42:27;;;;;;;5.78;1.70;;;;;;;14.54;100.00;101379.84;3588553;39;20040;-61
2021/08/03 06:45:00;;;;;;;3.17;1.50;;;;;;;14.66;100.00;101380.53;3592745;39;20051;-61
2021/08/03 06:47:28;;;;;;;3.33;1.95;;;;;;;14.94;100.00;101375.13;3592290;39;20272;-60
2021/08/03 06:49:59;;;;;;;6.65;1.63;;;;;;;15.17;100.00;101380.97;3592237;39;20046;-61
2021/08/03 06:52:26;;;;;;;4.68;1.50;;;;;;;15.37;100.00;101382.53;3591867;39;20059;-60
2021/08/03 06:55:04;;;;;;;2.03;1.20;;;;;;;15.55;100.00;101374.38;3595917;39;20050;-61
2021/08/03 06:57:33;;;;;;;3.00;1.50;;;;;;;15.68;100.00;101374.00;3600865;39;20048;-61
2021/08/03 07:00:03;;;;;;;;;;;;;;;16.07;100.00;101379.03;3603093;39;20040;-61
2021/08/03 07:02:31;;;;;;;2.38;1.40;;;;;;;16.22;100.00;101373.03;3602537;39;20008;-61
2021/08/03 07:05:01;;;;;;;4.60;1.65;;;;;;;16.23;100.00;101377.47;3603325;39;20028;-61
2021/08/03 07:07:27;;;;;;;2.67;1.58;;;;;;;16.17;100.00;101369.94;3604984;39;20028;-61
2021/08/03 07:09:55;;;;;;;3.20;1.30;;;;;;;16.48;100.00;101375.72;3602115;39;20380;-60
2021/08/03 07:12:22;;;;;;;4.03;1.40;;;;;;;16.74;100.00;101382.94;3603524;39;20028;-61
2021/08/03 07:14:50;;;;;;;5.30;1.42;;;;;;;16.81;100.00;101376.72;3604560;39;20046;-61
2021/08/03 07:17:17;;;;;;;3.67;1.23;;;;;;;17.06;100.00;101365.91;3605184;39;20055;-61
2021/08/03 07:19:44;;;;;;;3.97;1.05;;;;;;;16.88;100.00;101370.66;3605725;39;20038;-61
2021/08/03 07:22:15;;;;;;;1.52;1.15;;;;;;;17.02;100.00;101367.28;3607424;39;20036;-61
2021/08/03 07:24:43;;;;;;;2.90;1.10;;;;;;;17.49;100.00;101369.41;3607646;39;20036;-61
2021/08/03 07:27:10;;;;;;;3.65;1.13;;;;;;;17.32;100.00;101365.81;3607520;39;20035;-61
2021/08/03 07:29:36;;;;;;;5.28;1.30;;;;;;;17.64;100.00;101366.00;3607386;39;20027;-60
2021/08/03 07:32:03;;;;;;;3.10;0.95;;;;;;;17.89;100.00;101371.41;3607620;39;20039;-62
2021/08/03 07:34:30;;;;;;;3.00;1.20;;;;;;;18.16;100.00;101371.06;3607531;39;20036;-61
2021/08/03 07:36:56;;;;;;;1.92;1.08;;;;;;;18.51;100.00;101368.94;3607307;39;20032;-61
2021/08/03 07:39:24;;;;;;;2.45;1.10;;;;;;;18.52;100.00;101369.75;3607274;39;20047;-61
2021/08/03 07:41:51;;;;;;;2.58;1.05;;;;;;;17.84;100.00;101366.50;3607223;39;20044;-61
2021/08/03 07:44:17;;;;;;;2.38;1.10;;;;;;;18.10;100.00;101362.75;3607231;39;20113;-61
2021/08/03 07:46:44;;;;;;;2.08;1.02;;;;;;;17.76;100.00;101358.34;3607578;39;20064;-61
2021/08/03 07:49:11;;;;;;;3.58;1.10;;;;;;;17.52;100.00;101369.06;3607403;39;20048;-61
2021/08/03 07:51:37;;;;;;;3.33;1.35;;;;;;;18.15;100.00;101366.66;3607683;39;20073;-61
2021/08/03 07:54:04;;;;;;;4.75;1.10;;;;;;;18.12;100.00;101369.72;3603778;39;20353;-61
2021/08/03 07:56:31;;;;;;;3.03;1.10;;;;;;;18.26;100.00;101364.59;3595912;39;20052;-61
2021/08/03 07:58:58;;;;;;;2.20;1.17;;;;;;;18.54;100.00;101359.56;3599163;39;20050;-61
2021/08/03 08:01:24;;;;;;;2.17;1.10;;;;;;;18.25;100.00;101368.34;3598788;39;20298;-61
2021/08/03 08:03:51;;;;;;;3.28;0.82;;;;;;;18.06;100.00;101364.97;3598807;39;20033;-61
2021/08/03 08:06:17;;;;;;;4.53;1.00;;;;;;;18.39;100.00;101364.91;3598943;39;20070;-61
2021/08/03 08:08:43;;;;;;;2.85;1.10;;;;;;;18.10;100.00;101371.78;3595800;39;20052;-61
2021/08/03 08:11:10;;;;;;;5.40;1.13;;;;;;;18.14;100.00;101373.13;3593048;39;20054;-61
2021/08/03 08:13:38;;;;;;;2.15;0.95;;;;;;;18.46;100.00;101365.91;3596547;39;20224;-61
2021/08/03 08:16:05;;;;;;;2.97;1.10;;;;;;;18.24;100.00;101363.91;3597113;39;20315;-61
2021/08/03 08:18:32;;;;;;;2.75;1.10;;;;;;;18.23;100.00;101359.47;3598049;39;20044;-61
2021/08/03 08:20:59;;;;;;;6.28;1.55;;;;;;;18.72;100.00;101353.84;3598651;39;20039;-61
2021/08/03 08:23:25;;;;;;;3.38;1.17;;;;;;;18.86;100.00;101350.41;3598797;39;20060;-61
2021/08/03 08:25:52;;;;;;;2.45;0.90;;;;;;;19.22;100.00;101346.25;3598843;39;20043;-60
2021/08/03 08:28:18;;;;;;;2.88;0.80;;;;;;;19.12;100.00;101338.28;3597920;39;20044;-61
2021/08/03 08:30:46;;;;;;;2.75;0.88;;;;;;;19.00;100.00;101339.75;3598658;39;20036;-61
2021/08/03 08:33:12;;;;;;;4.30;1.15;;;;;;;19.05;100.00;101334.59;3602722;39;20136;-61
2021/08/03 08:35:39;;;;;;;2.80;1.00;;;;;;;19.58;100.00;101338.31;3598752;39;20397;-61
2021/08/03 08:38:06;;;;;;;6.35;1.50;;;;;;;19.64;100.00;101335.84;3598480;39;20083;-60
2021/08/03 08:40:33;;;;;;;3.53;1.20;;;;;;;20.09;100.00;101339.53;3598877;39;20050;-61
2021/08/03 08:43:00;;;;;;;1.77;0.90;;;;;;;19.98;100.00;101332.66;3599032;39;20042;-61
2021/08/03 08:45:26;;;;;;;2.03;0.90;;;;;;;19.48;100.00;101332.25;3598808;39;20040;-61
2021/08/03 08:47:54;;;;;;;1.63;0.77;;;;;;;19.86;100.00;101334.13;3598622;39;20356;-61
2021/08/03 08:50:22;;;;;;;4.10;1.20;;;;;;;20.04;100.00;101325.63;3598579;39;20060;-62
2021/08/03 08:52:52;;;;;;;5.93;1.30;;;;;;;19.92;100.00;101327.94;3598845;39;20048;-61
2021/08/03 08:55:19;;;;;;;3.75;1.17;;;;;;;19.66;100.00;101323.72;3598949;39;20056;-61
2021/08/03 08:57:47;;;;;;;2.90;1.10;;;;;;;19.46;100.00;101333.44;3598735;39;20065;-61
2021/08/03 09:00:14;;;;;;;6.25;1.25;;;;;;;19.49;100.00;101323.00;3597966;39;20032;-61
2021/08/03 09:02:41;;;;;;;3.05;1.20;;;;;;;19.20;100.00;101319.16;3598734;39;20055;-61
2021/08/03 09:05:11;;;;;;;3.40;1.25;;;;;;;19.04;100.00;101324.72;3598592;39;20035;-61
2021/08/03 09:07:49;;;;;;;2.53;1.42;;;;;;;19.29;100.00;101317.22;3598292;39;20075;-61
2021/08/03 09:10:36;;;;;;;3.53;1.10;;;;;;;19.07;100.00;101330.66;3598162;39;20121;-62
2021/08/03 09:13:06;;;;;;;4.38;1.13;;;;;;;18.87;100.00;101327.56;3598728;39;20274;-61
2021/08/03 09:15:35;;;;;;;2.22;1.00;;;;;;;18.96;100.00;101341.13;3598240;39;20037;-61
2021/08/03 09:18:16;;;;;;;3.42;1.08;;;;;;;18.85;100.00;101328.72;3598161;39;20046;-62
2021/08/03 09:20:46;;;;;;;3.10;1.13;;;;;;;18.83;100.00;101339.81;3598592;39;20032;-61
2021/08/03 09:23:13;;;;;;;4.38;1.10;;;;;;;18.65;100.00;101339.22;3598778;39;20043;-61
2021/08/03 09:25:51;;;;;;;2.65;1.15;;;;;;;18.58;100.00;101349.13;3598954;39;20036;-61
2021/08/03 09:28:17;;;;;;;5.13;1.30;;;;;;;18.45;100.00;101341.53;3598510;39;20130;-61
2021/08/03 09:30:44;;;;;;;3.92;1.30;;;;;;;18.24;100.00;101340.25;3598230;39;20068;-61
2021/08/03 09:33:20;;;;;;;3.35;1.08;;;;;;;18.31;100.00;101346.66;3597718;39;20043;-61
2021/08/03 09:35:49;;;;;;;3.08;1.08;;;;;;;17.81;100.00;101348.63;3598448;39;20044;-61
2021/08/03 09:38:17;;;;;;;2.65;1.10;;;;;;;17.51;100.00;101351.03;3597751;39;20032;-61
2021/08/03 09:40:43;;;;;;;9.90;1.48;;;;;;;17.48;100.00;101354.09;3598176;39;20128;-61
2021/08/03 09:43:11;;;;;;;4.55;1.38;;;;;;;17.54;100.00;101352.56;3598315;39;20028;-61
2021/08/03 09:46:00;;;;;;;2.80;1.55;;;;;;;17.69;100.00;101358.16;3598607;39;20044;-61
2021/08/03 09:48:28;;;;;;;4.60;1.33;;;;;;;17.43;100.00;101351.03;3597985;39;20059;-61
2021/08/03 09:50:59;;;;;;;2.75;1.30;;;;;;;17.31;100.00;101355.09;3598119;39;20044;-61
2021/08/03 09:53:40;;;;;;;7.68;1.60;;;;;;;17.15;100.00;101351.34;3598120;39;20036;-61
2021/08/03 09:56:07;;;;;;;3.75;1.30;;;;;;;17.20;100.00;101352.72;3596653;39;20024;-61
2021/08/03 09:58:34;;;;;;;3.35;1.30;;;;;;;17.43;100.00;101352.88;3595072;39;20391;-61
2021/08/03 10:01:27;;;;;;;5.25;1.30;;;;;;;17.60;100.00;101357.31;3593297;39;20040;-61
2021/08/03 10:03:55;;;;;;;3.90;1.45;;;;;;;17.63;100.00;101347.97;3598364;39;20074;-61
2021/08/03 10:06:23;;;;;;;3.40;1.30;;;;;;;17.97;100.00;101347.78;3598253;39;24087;-61
2021/08/03 10:08:51;;;;;;;4.55;1.27;;;;;;;18.29;100.00;101348.72;3597502;39;20462;-61
2021/08/03 10:11:18;;;;;;;4.05;1.70;;;;;;;18.48;100.00;101342.03;3598280;39;20036;-62
2021/08/03 10:13:45;;;;;;;6.60;1.50;;;;;;;17.92;100.00;101349.31;3598420;39;20021;-62
2021/08/03 10:16:13;;;;;;;4.13;1.50;;;;;;;18.00;100.00;101341.16;3597700;39;20108;-62
2021/08/03 10:18:41;;;;;;;4.28;1.20;;;;;;;17.96;100.00;101347.94;3597837;39;20302;-62
2021/08/03 10:21:10;;;;;;;2.90;1.27;;;;;;;18.05;100.00;101344.22;3598278;39;20038;-62
2021/08/03 10:23:40;;;;;;;3.28;1.38;;;;;;;18.20;100.00;101339.72;3594386;39;20496;-62
2021/08/03 10:26:13;;;;;;;3.80;1.30;;;;;;;17.92;100.00;101341.16;3595863;39;20039;-63
2021/08/03 10:28:39;;;;;;;3.00;1.42;;;;;;;17.78;100.00;101340.78;3598346;39;20036;-60
2021/08/03 10:31:39;;;;;;;2.17;1.20;;;;;;;17.73;100.00;101343.19;3598078;39;20058;-60
2021/08/03 10:34:06;;;;;;;3.85;1.30;;;;;;;17.54;100.00;101343.56;3597544;39;20039;-61
2021/08/03 10:36:47;;;;;;;4.60;1.40;;;;;;;17.78;100.00;101346.25;3597753;39;20375;-61
2021/08/03 10:39:17;;;;;;;3.72;1.20;;;;;;;17.59;100.00;101346.59;3598222;39;20040;-61
2021/08/03 10:42:06;;;;;;;2.47;1.30;;;;;;;17.55;100.00;101350.69;3598212;39;20055;-61
2021/08/03 10:44:43;;;;;;;4.00;1.40;;;;;;;17.54;100.00;101349.00;3597371;39;20391;-61
2021/08/03 10:47:43;;;;;;;3.95;1.52;;;;;;;17.27;100.00;101348.28;3597924;39;20038;-61
2021/08/03 10:50:11;;;;;;;7.38;1.50;;;;;;;17.41;100.00;101347.63;3595179;39;20075;-61
2021/08/03 10:52:55;;;;;;;2.63;1.35;;;;;;;17.41;100.00;101344.91;3597851;39;20046;-61
2021/08/03 10:55:38;;;;;;;4.57;1.50;;;;;;;17.40;100.00;101348.66;3597765;39;20084;-61
2021/08/03 10:58:31;;;;;;;3.05;1.10;;;;;;;17.47;100.00;101335.22;3595464;39;20077;-61
2021/08/03 11:01:00;;;;;;;2.72;1.35;;;;;;;17.28;100.00;101336.38;3573343;40;20066;-61
2021/08/03 11:03:44;;;;;;;3.22;1.30;;;;;;;17.51;100.00;101347.47;3597980;39;20024;-61
2021/08/03 11:06:36;;;;;;;4.03;1.48;;;;;;;17.41;100.00;101344.91;3597549;39;20043;-61
2021/08/03 11:09:31;;;;;;;6.13;1.30;;;;;;;17.34;100.00;101338.41;3597711;39;20432;-61
2021/08/03 11:12:31;;;;;;;3.17;1.58;;;;;;;17.20;100.00;101341.84;3597509;39;20047;-60
2021/08/03 11:14:59;;;;;;;4.43;1.45;;;;;;;17.09;100.00;101348.44;3597314;39;20040;-60
2021/08/03 11:17:50;;;;;;;1.77;1.27;;;;;;;17.14;100.00;101346.91;3597636;39;20036;-61
2021/08/03 11:20:49;;;;;;;5.38;1.67;;;;;;;17.09;100.00;101343.84;3597304;39;20040;-61
2021/08/03 11:23:17;;;;;;;5.00;1.73;;;;;;;17.01;100.00;101338.38;3592641;39;20044;-61
2021/08/03 11:25:45;;;;;;;6.38;2.25;;;;;;;16.74;100.00;101353.91;3597645;39;20290;-61
2021/08/03 11:28:14;;;;;;;4.53;1.80;;;;;;;16.87;100.00;101347.16;3590273;39;20313;-61
2021/08/03 11:30:44;;;;;;;4.28;2.05;;;;;;;16.87;100.00;101339.00;3598316;39;20286;-61
2021/08/03 11:33:12;;;;;;;3.92;1.98;;;;;;;16.91;100.00;101338.53;3599390;39;20375;-61
2021/08/03 11:35:39;;;;;;;5.53;2.05;;;;;;;16.93;100.00;101335.63;3598787;39;20391;-61
2021/08/03 11:38:07;;;;;;;4.95;1.80;;;;;;;17.08;100.00;101336.72;3598701;39;20032;-62